Time;durP1;ratioP1;P1;durP2;ratioP2;P2;SDS_P1;SDS_P2;PMS_P1;PMS_P2;Temp;Humidity;BMP_temperature;BMP_pressure;BME280_temperature;BME280_humidity;BME280_pressure;Samples;Min_cycle;Max_cycle;Signal;HPM_P1;HPM_P2
2021/08/27 00:01:15;;;;;;;3.43;3.13;;;13.10;99.90;;;;;;5076953;28;20449;-80
2021/08/27 00:03:41;;;;;;;4.03;2.80;;;13.20;99.90;;;;;;5076959;28;20445;-80
2021/08/27 00:06:08;;;;;;;2.77;2.50;;;13.10;99.90;;;;;;5077568;28;20507;-80
2021/08/27 00:08:35;;;;;;;3.03;2.70;;;13.10;99.90;;;;;;5077515;28;20490;-79
2021/08/27 00:11:02;;;;;;;3.43;2.97;;;13.10;99.90;;;;;;5076409;28;20484;-80
2021/08/27 00:13:29;;;;;;;2.80;2.60;;;13.00;99.90;;;;;;5077747;28;20916;-80
2021/08/27 00:15:55;;;;;;;4.73;3.10;;;13.00;99.90;;;;;;5077677;28;20485;-80
2021/08/27 00:18:22;;;;;;;4.90;3.17;;;13.00;99.90;;;;;;5077399;28;20488;-80
2021/08/27 00:20:48;;;;;;;4.33;3.20;;;13.00;99.90;;;;;;5078766;28;20481;-79
2021/08/27 00:23:15;;;;;;;5.57;3.87;;;13.10;99.90;;;;;;5087470;28;20472;-79
2021/08/27 00:25:43;;;;;;;3.27;3.07;;;13.10;99.90;;;;;;5087644;28;20440;-79
2021/08/27 00:28:09;;;;;;;7.60;3.80;;;13.10;99.90;;;;;;5086563;28;20516;-79
2021/08/27 00:30:36;;;;;;;3.10;2.80;;;13.10;99.90;;;;;;5087672;28;20465;-78
2021/08/27 00:33:04;;;;;;;4.80;4.40;;;13.10;99.90;;;;;;5089176;28;20481;-79
2021/08/27 00:35:30;;;;;;;3.37;2.77;;;13.10;99.90;;;;;;5084535;28;20515;-79
2021/08/27 00:37:57;;;;;;;8.10;4.03;;;13.10;99.90;;;;;;5081081;28;20447;-80
2021/08/27 00:40:23;;;;;;;4.00;3.70;;;13.10;99.90;;;;;;5080263;28;20529;-80
2021/08/27 00:42:51;;;;;;;4.10;3.80;;;13.10;99.90;;;;;;5085529;28;20834;-79
2021/08/27 00:45:18;;;;;;;3.40;2.70;;;13.20;99.90;;;;;;5086410;28;20465;-79
2021/08/27 00:47:44;;;;;;;3.00;2.80;;;13.10;99.90;;;;;;5086480;28;20456;-79
2021/08/27 00:50:12;;;;;;;3.10;2.90;;;13.00;99.90;;;;;;5081085;28;20503;-80
2021/08/27 00:52:39;;;;;;;7.43;3.70;;;13.00;99.90;;;;;;5076997;28;20520;-80
2021/08/27 00:55:07;;;;;;;3.50;3.20;;;13.00;99.90;;;;;;5075855;28;20493;-80
2021/08/27 00:57:35;;;;;;;3.53;3.23;;;13.10;99.90;;;;;;5076757;28;20453;-80
2021/08/27 01:00:03;;;;;;;5.17;3.30;;;13.00;99.90;;;;;;5076326;28;20507;-80
2021/08/27 01:02:31;;;;;;;3.63;3.33;;;13.00;99.90;;;;;;5075972;28;20928;-80
2021/08/27 01:04:58;;;;;;;3.23;2.93;;;13.00;99.90;;;;;;5076278;28;20815;-80
2021/08/27 01:07:30;;;;;;;4.07;3.00;;;13.00;99.90;;;;;;5076108;28;20453;-79
2021/08/27 01:10:07;;;;;;;4.37;3.97;;;13.00;99.90;;;;;;5075976;28;20429;-80
2021/08/27 01:12:38;;;;;;;5.43;3.27;;;12.90;99.90;;;;;;5082048;28;20473;-79
2021/08/27 01:15:11;;;;;;;4.00;3.63;;;13.00;99.90;;;;;;5081651;28;20531;-79
2021/08/27 01:17:43;;;;;;;3.87;3.57;;;13.00;99.90;;;;;;5081066;28;20433;-79
2021/08/27 01:20:41;;;;;;;3.80;3.50;;;12.90;99.90;;;;;;5077662;28;20429;-79
2021/08/27 01:23:16;;;;;;;3.50;3.20;;;13.00;99.90;;;;;;5076393;28;20453;-79
2021/08/27 01:25:48;;;;;;;5.17;3.60;;;13.00;99.90;;;;;;5075747;28;20477;-80
2021/08/27 01:28:15;;;;;;;4.03;3.73;;;13.00;99.90;;;;;;5077182;28;20465;-79
2021/08/27 01:30:53;;;;;;;3.93;3.40;;;13.00;99.90;;;;;;5095397;28;20433;-78
2021/08/27 01:33:23;;;;;;;4.60;3.63;;;13.00;99.90;;;;;;5079560;28;20457;-80
2021/08/27 01:35:57;;;;;;;4.40;3.97;;;13.00;99.90;;;;;;5076076;28;20466;-80
2021/08/27 01:38:28;;;;;;;3.77;3.30;;;12.90;99.90;;;;;;5075564;28;20467;-79
2021/08/27 01:40:55;;;;;;;3.67;3.47;;;12.90;99.90;;;;;;5075832;28;20477;-79
2021/08/27 01:43:24;;;;;;;5.40;3.23;;;12.90;99.90;;;;;;5075354;28;20476;-79
2021/08/27 01:45:53;;;;;;;3.70;3.50;;;12.90;99.90;;;;;;5075789;28;20832;-79
2021/08/27 01:48:21;;;;;;;3.80;3.50;;;12.90;99.90;;;;;;5074928;28;20484;-79
2021/08/27 01:50:48;;;;;;;4.13;3.23;;;12.80;99.90;;;;;;5075284;28;20460;-79
2021/08/27 01:53:17;;;;;;;3.43;3.17;;;12.90;99.90;;;;;;5077260;28;20512;-78
2021/08/27 01:55:45;;;;;;;6.67;3.27;;;12.90;99.90;;;;;;5083470;28;20994;-79
2021/08/27 01:58:12;;;;;;;7.43;2.60;;;12.90;99.90;;;;;;5082850;28;20512;-78
2021/08/27 02:00:39;;;;;;;3.03;2.77;;;12.90;99.90;;;;;;5080728;28;20482;-78
2021/08/27 02:03:06;;;;;;;2.73;2.53;;;12.90;99.90;;;;;;5078297;28;20433;-78
2021/08/27 02:05:33;;;;;;;3.53;3.23;;;12.90;99.90;;;;;;5078211;28;20537;-78
2021/08/27 02:08:01;;;;;;;2.63;2.47;;;12.80;99.90;;;;;;5078428;28;20445;-78
2021/08/27 02:10:31;;;;;;;3.10;2.80;;;12.90;99.90;;;;;;5078811;28;20476;-78
2021/08/27 02:12:58;;;;;;;3.80;3.00;;;12.80;99.90;;;;;;5078770;28;20480;-78
2021/08/27 02:15:24;;;;;;;2.40;2.20;;;12.80;99.90;;;;;;5077882;28;20477;-78
2021/08/27 02:17:51;;;;;;;2.70;2.50;;;12.80;99.90;;;;;;5078945;28;20416;-79
2021/08/27 02:20:18;;;;;;;3.97;2.80;;;12.90;99.90;;;;;;5081025;28;20485;-78
2021/08/27 02:22:50;;;;;;;3.10;2.70;;;12.90;99.90;;;;;;5079592;28;20511;-78
2021/08/27 02:25:19;;;;;;;2.87;2.67;;;12.90;99.90;;;;;;5078312;28;20500;-79
2021/08/27 02:27:48;;;;;;;7.37;2.70;;;12.90;99.90;;;;;;5077262;28;20441;-78
2021/08/27 02:30:16;;;;;;;4.10;3.03;;;12.90;99.90;;;;;;5077081;28;20480;-78
2021/08/27 02:32:44;;;;;;;4.30;2.30;;;12.90;99.90;;;;;;5076271;28;20460;-80
2021/08/27 02:35:12;;;;;;;3.00;2.80;;;12.90;99.90;;;;;;5074708;28;20503;-79
2021/08/27 02:37:40;;;;;;;2.70;2.50;;;12.90;99.90;;;;;;5074959;28;20892;-79
2021/08/27 02:40:08;;;;;;;6.40;3.90;;;12.80;99.90;;;;;;5074766;28;20445;-79
2021/08/27 02:42:35;;;;;;;6.60;2.93;;;12.90;99.90;;;;;;5074576;28;20445;-79
2021/08/27 02:45:05;;;;;;;2.77;2.50;;;12.90;99.90;;;;;;5074529;28;20501;-79
2021/08/27 02:47:32;;;;;;;5.40;2.53;;;12.90;99.90;;;;;;5074675;28;20519;-79
2021/08/27 02:49:59;;;;;;;3.07;2.87;;;12.90;99.90;;;;;;5074468;28;20479;-79
2021/08/27 02:52:31;;;;;;;2.40;2.20;;;12.90;99.90;;;;;;5074918;28;20473;-79
2021/08/27 02:55:03;;;;;;;7.87;7.00;;;12.90;99.90;;;;;;5074562;28;20463;-79
2021/08/27 02:57:36;;;;;;;3.73;3.43;;;13.00;99.90;;;;;;5074687;28;20433;-79
2021/08/27 03:00:05;;;;;;;3.17;2.50;;;13.00;99.90;;;;;;5073971;28;20442;-79
2021/08/27 03:02:32;;;;;;;2.43;2.23;;;13.00;99.90;;;;;;5074019;28;20449;-79
2021/08/27 03:05:04;;;;;;;2.67;2.40;;;12.90;99.90;;;;;;5073470;28;20465;-79
2021/08/27 03:07:31;;;;;;;2.40;2.30;;;12.90;99.90;;;;;;5073413;28;20975;-79
2021/08/27 03:10:02;;;;;;;2.20;2.10;;;12.90;99.90;;;;;;5074194;28;20559;-79
2021/08/27 03:12:45;;;;;;;2.30;2.20;;;12.90;99.90;;;;;;5073314;28;20537;-78
2021/08/27 03:15:29;;;;;;;2.43;1.87;;;12.90;99.90;;;;;;5179689;22;20483;-84
2021/08/27 03:21:53;;;;;;;2.20;2.07;;;13.10;99.90;;;;;;5109061;28;20468;-85
2021/08/27 03:37:56;;;;;;;2.70;2.03;;;12.90;99.90;;;;;;5757419;22;20494;-86
2021/08/27 03:47:40;;;;;;;2.40;2.30;;;12.90;99.90;;;;;;4971690;29;20506;-83
2021/08/27 03:50:10;;;;;;;3.33;2.30;;;13.30;99.90;;;;;;5063089;22;20499;-79
2021/08/27 03:52:37;;;;;;;3.43;2.27;;;13.00;99.90;;;;;;5134261;28;20436;-80
2021/08/27 03:55:05;;;;;;;3.63;3.30;;;13.00;99.90;;;;;;5134328;28;20486;-80
2021/08/27 03:57:32;;;;;;;2.30;2.10;;;13.00;99.90;;;;;;5134928;28;20447;-81
2021/08/27 04:00:00;;;;;;;2.73;2.30;;;13.00;99.90;;;;;;5134692;28;20468;-80
2021/08/27 04:02:27;;;;;;;2.40;2.20;;;13.00;99.90;;;;;;5134736;28;20853;-80
2021/08/27 04:05:07;;;;;;;2.13;2.03;;;13.00;99.90;;;;;;5134232;28;20526;-80
2021/08/27 04:07:34;;;;;;;2.10;2.00;;;13.00;99.90;;;;;;5134327;28;20420;-80
2021/08/27 04:10:03;;;;;;;1.90;1.37;;;12.90;99.90;;;;;;5134630;28;20493;-80
2021/08/27 04:12:29;;;;;;;1.73;1.63;;;13.10;99.90;;;;;;5134515;28;20447;-80
2021/08/27 04:14:56;;;;;;;1.97;1.80;;;12.90;99.90;;;;;;5133423;28;20508;-80
2021/08/27 04:17:23;;;;;;;2.30;1.83;;;12.90;99.90;;;;;;5134519;28;20451;-80
2021/08/27 04:19:49;;;;;;;1.70;1.60;;;12.80;99.90;;;;;;5133795;28;20512;-80
2021/08/27 04:22:17;;;;;;;1.80;1.70;;;12.90;99.90;;;;;;5131463;28;20439;-80
2021/08/27 04:24:44;;;;;;;1.90;1.70;;;12.90;99.90;;;;;;5133923;28;20443;-80
2021/08/27 04:27:10;;;;;;;1.83;1.73;;;12.90;99.90;;;;;;5134594;28;20469;-80
2021/08/27 04:29:37;;;;;;;3.23;1.83;;;12.90;99.90;;;;;;5132382;27;20472;-79
2021/08/27 04:32:04;;;;;;;1.80;1.70;;;12.90;99.90;;;;;;5120588;28;20444;-80
2021/08/27 04:34:31;;;;;;;3.20;2.00;;;12.90;99.90;;;;;;5122413;28;20479;-80
2021/08/27 04:36:57;;;;;;;1.57;1.47;;;12.90;99.90;;;;;;5125083;28;20443;-80
2021/08/27 04:39:25;;;;;;;1.60;1.50;;;12.90;99.90;;;;;;5130869;28;20464;-80
2021/08/27 04:41:52;;;;;;;1.60;1.50;;;12.90;99.90;;;;;;5134382;28;20473;-80
2021/08/27 04:44:18;;;;;;;1.83;1.73;;;12.90;99.90;;;;;;5133657;28;20497;-79
2021/08/27 04:46:45;;;;;;;1.80;1.70;;;13.00;99.90;;;;;;5133039;28;20439;-79
2021/08/27 04:49:12;;;;;;;2.43;2.23;;;13.00;99.90;;;;;;5133307;28;20463;-79
2021/08/27 04:51:38;;;;;;;2.60;2.40;;;13.00;99.90;;;;;;5139052;28;20416;-79
2021/08/27 04:54:05;;;;;;;2.47;2.27;;;12.90;99.90;;;;;;5139387;28;20487;-79
2021/08/27 04:56:33;;;;;;;2.53;2.33;;;12.90;99.90;;;;;;5139696;28;20447;-79
2021/08/27 04:58:59;;;;;;;2.40;2.27;;;12.90;99.90;;;;;;5140078;27;20428;-78
2021/08/27 05:01:26;;;;;;;2.87;2.67;;;12.90;99.90;;;;;;5140628;27;20423;-79
2021/08/27 05:03:53;;;;;;;2.37;2.20;;;13.00;99.90;;;;;;5137151;28;20444;-79
2021/08/27 05:06:19;;;;;;;4.20;2.97;;;13.00;99.90;;;;;;5136997;28;20444;-79
2021/08/27 05:08:46;;;;;;;4.23;3.20;;;13.00;99.90;;;;;;5136212;28;20522;-79
2021/08/27 05:11:12;;;;;;;9.13;4.00;;;13.10;99.90;;;;;;5135728;28;20486;-79
2021/08/27 05:13:40;;;;;;;5.17;3.53;;;13.10;99.90;;;;;;5135739;28;20420;-80
2021/08/27 05:16:07;;;;;;;3.63;2.60;;;13.10;99.90;;;;;;5135950;28;20444;-79
2021/08/27 05:18:33;;;;;;;3.00;2.80;;;13.00;99.90;;;;;;5135011;28;20442;-80
2021/08/27 05:21:00;;;;;;;2.33;2.00;;;12.90;99.90;;;;;;5133380;28;20475;-80
2021/08/27 05:23:27;;;;;;;2.90;2.70;;;12.90;99.90;;;;;;5134128;28;20439;-80
2021/08/27 05:25:53;;;;;;;3.40;3.10;;;12.90;99.90;;;;;;5134172;28;20440;-81
2021/08/27 05:28:20;;;;;;;3.87;3.50;;;13.00;99.90;;;;;;5133823;28;20508;-81
2021/08/27 05:30:48;;;;;;;3.20;2.90;;;13.00;99.90;;;;;;5132260;28;20993;-80
2021/08/27 05:33:15;;;;;;;3.70;3.03;;;12.90;99.90;;;;;;5132512;28;20456;-81
2021/08/27 05:35:41;;;;;;;3.07;2.77;;;13.00;99.90;;;;;;5133053;28;20479;-80
2021/08/27 05:38:08;;;;;;;3.23;2.90;;;13.00;99.90;;;;;;5126913;28;20450;-80
2021/08/27 05:40:35;;;;;;;2.40;2.20;;;13.00;99.90;;;;;;5118680;28;20532;-80
2021/08/27 05:43:03;;;;;;;2.47;2.27;;;13.00;99.90;;;;;;5123600;28;20439;-80
2021/08/27 05:45:30;;;;;;;4.30;2.67;;;13.00;99.90;;;;;;5125496;28;20443;-80
2021/08/27 05:47:57;;;;;;;2.53;2.33;;;13.00;99.90;;;;;;5130586;28;20458;-80
2021/08/27 05:50:26;;;;;;;2.80;2.60;;;13.10;99.90;;;;;;5132654;28;20467;-81
2021/08/27 05:52:53;;;;;;;3.53;2.70;;;13.20;99.90;;;;;;5133240;28;20451;-80
2021/08/27 05:55:19;;;;;;;5.73;3.87;;;13.20;99.90;;;;;;5128300;28;20510;-80
2021/08/27 05:57:46;;;;;;;4.63;4.23;;;13.10;99.90;;;;;;5132854;28;20463;-80
2021/08/27 06:00:14;;;;;;;4.20;3.80;;;13.10;99.90;;;;;;5133602;28;20489;-80
2021/08/27 06:02:40;;;;;;;3.13;2.93;;;12.80;99.90;;;;;;5133214;28;20436;-80
2021/08/27 06:05:10;;;;;;;3.20;2.90;;;12.90;99.90;;;;;;5133950;28;20444;-81
2021/08/27 06:07:36;;;;;;;7.93;3.07;;;12.80;99.90;;;;;;5133203;28;20443;-81
2021/08/27 06:10:03;;;;;;;6.63;3.13;;;12.80;99.90;;;;;;5132021;28;20464;-81
2021/08/27 06:12:30;;;;;;;3.23;2.73;;;12.80;99.90;;;;;;5133778;28;20473;-81
2021/08/27 06:14:57;;;;;;;4.90;3.00;;;12.80;99.90;;;;;;5132989;28;20471;-81
2021/08/27 06:17:24;;;;;;;4.73;3.27;;;12.90;99.90;;;;;;5134393;28;20440;-81
2021/08/27 06:19:50;;;;;;;3.43;3.23;;;12.90;99.90;;;;;;5133583;28;20460;-81
2021/08/27 06:22:19;;;;;;;3.20;2.90;;;12.90;99.90;;;;;;5129954;28;20791;-81
2021/08/27 06:24:46;;;;;;;2.80;2.60;;;12.90;99.90;;;;;;5129856;28;20452;-81
2021/08/27 06:27:12;;;;;;;4.10;3.67;;;12.90;99.90;;;;;;5131047;28;20439;-81
2021/08/27 06:29:41;;;;;;;2.50;2.27;;;12.90;99.90;;;;;;5131358;28;20464;-82
2021/08/27 06:32:09;;;;;;;3.17;2.90;;;12.90;99.90;;;;;;5134916;28;20456;-81
2021/08/27 06:34:38;;;;;;;2.83;2.63;;;12.80;99.90;;;;;;5132688;28;20940;-81
2021/08/27 06:37:05;;;;;;;3.03;2.70;;;12.80;99.90;;;;;;5132522;28;20810;-81
2021/08/27 06:39:33;;;;;;;2.70;2.40;;;12.80;99.90;;;;;;5132435;28;20455;-80
2021/08/27 06:42:00;;;;;;;2.93;2.63;;;12.80;99.90;;;;;;5133486;28;20455;-81
2021/08/27 06:44:27;;;;;;;3.20;2.90;;;12.80;99.90;;;;;;5132069;28;20432;-81
2021/08/27 06:46:54;;;;;;;3.00;2.80;;;12.80;99.90;;;;;;5131500;28;20448;-81
2021/08/27 06:49:21;;;;;;;5.27;4.77;;;12.90;99.90;;;;;;5131462;28;20491;-81
2021/08/27 06:51:48;;;;;;;3.23;3.00;;;13.00;99.90;;;;;;5127926;28;20454;-81
2021/08/27 06:54:14;;;;;;;3.80;3.50;;;13.10;99.90;;;;;;5132048;28;20540;-81
2021/08/27 06:56:42;;;;;;;4.30;3.33;;;13.20;99.90;;;;;;5135894;28;20474;-81
2021/08/27 06:59:09;;;;;;;3.47;3.23;;;13.50;99.90;;;;;;5137779;28;20444;-81
2021/08/27 07:01:36;;;;;;;4.40;4.00;;;13.50;99.90;;;;;;5135947;28;20442;-82
2021/08/27 07:04:03;;;;;;;3.83;3.53;;;13.60;99.90;;;;;;5133012;28;20465;-82
2021/08/27 07:06:29;;;;;;;3.47;3.27;;;13.60;99.90;;;;;;5134499;28;20512;-83
2021/08/27 07:08:56;;;;;;;3.20;2.00;;;13.50;99.90;;;;;;5133699;28;20444;-82
2021/08/27 07:11:22;;;;;;;3.10;2.20;;;13.40;99.90;;;;;;5134569;28;20450;-82
2021/08/27 07:13:53;;;;;;;1.70;1.60;;;13.50;99.90;;;;;;5133747;28;20465;-83
2021/08/27 07:16:20;;;;;;;1.73;1.50;;;13.40;99.90;;;;;;5133753;28;20468;-83
2021/08/27 07:18:46;;;;;;;1.63;1.50;;;13.30;99.90;;;;;;5133812;28;20443;-83
2021/08/27 07:21:14;;;;;;;1.50;1.40;;;13.30;99.90;;;;;;5135725;28;20459;-83
2021/08/27 07:23:41;;;;;;;2.00;1.50;;;13.10;99.90;;;;;;5133889;28;20443;-82
2021/08/27 07:26:07;;;;;;;3.10;2.80;;;13.10;99.90;;;;;;5133825;28;20435;-83
2021/08/27 07:28:36;;;;;;;2.00;1.47;;;13.10;99.90;;;;;;5137095;28;20478;-82
2021/08/27 07:31:04;;;;;;;1.80;1.70;;;13.10;99.90;;;;;;5132401;28;20472;-81
2021/08/27 07:33:31;;;;;;;2.40;1.97;;;13.20;99.90;;;;;;5133416;28;20864;-82
2021/08/27 07:35:58;;;;;;;2.57;2.13;;;13.00;99.90;;;;;;5133224;28;20479;-82
2021/08/27 07:38:24;;;;;;;1.93;1.83;;;13.20;99.90;;;;;;5133534;28;20816;-82
2021/08/27 07:40:51;;;;;;;2.57;2.37;;;13.20;99.90;;;;;;5132397;28;20485;-82
2021/08/27 07:43:18;;;;;;;3.57;2.47;;;13.30;99.90;;;;;;5133717;28;20447;-83
2021/08/27 07:45:45;;;;;;;2.07;1.97;;;13.30;99.90;;;;;;5133863;28;20890;-82
2021/08/27 07:48:15;;;;;;;2.47;2.20;;;13.30;99.90;;;;;;5133229;28;20447;-83
2021/08/27 07:50:42;;;;;;;4.73;2.43;;;13.40;99.90;;;;;;5136117;28;20501;-82
2021/08/27 07:53:09;;;;;;;3.53;2.50;;;13.30;99.90;;;;;;5136529;28;20457;-83
2021/08/27 07:55:36;;;;;;;3.23;2.93;;;13.40;99.90;;;;;;5139677;27;20478;-82
2021/08/27 07:58:03;;;;;;;2.30;2.07;;;13.50;99.90;;;;;;5141346;27;20465;-81
2021/08/27 08:00:30;;;;;;;2.60;2.40;;;13.50;99.90;;;;;;5141128;27;20521;-80
2021/08/27 08:02:57;;;;;;;2.50;2.30;;;13.70;99.90;;;;;;5134814;28;20447;-80
2021/08/27 08:05:25;;;;;;;2.23;2.03;;;13.50;99.90;;;;;;5134238;28;20436;-81
2021/08/27 08:07:51;;;;;;;3.63;2.33;;;13.60;99.90;;;;;;5131148;28;20519;-81
2021/08/27 08:10:18;;;;;;;2.33;2.13;;;13.50;99.90;;;;;;5131785;28;20459;-81
2021/08/27 08:12:45;;;;;;;2.10;2.00;;;13.60;99.90;;;;;;5131413;28;20447;-82
2021/08/27 08:15:12;;;;;;;2.40;1.77;;;14.00;99.90;;;;;;5133768;27;20818;-81
2021/08/27 08:17:39;;;;;;;2.20;2.10;;;13.70;99.90;;;;;;5133406;28;20597;-82
2021/08/27 08:20:07;;;;;;;5.00;1.63;;;13.70;99.90;;;;;;5133341;28;20829;-82
2021/08/27 08:22:35;;;;;;;1.60;1.50;;;13.60;99.90;;;;;;5131040;28;20469;-82
2021/08/27 08:25:01;;;;;;;1.50;1.40;;;13.70;99.90;;;;;;5129576;28;20440;-80
2021/08/27 08:27:33;;;;;;;1.23;1.13;;;13.70;99.90;;;;;;5132130;28;20443;-80
2021/08/27 08:30:00;;;;;;;1.27;1.17;;;13.70;99.90;;;;;;5131425;28;20468;-79
2021/08/27 08:32:27;;;;;;;1.30;1.20;;;13.80;99.90;;;;;;5132337;28;20469;-81
2021/08/27 08:34:53;;;;;;;1.60;1.50;;;13.80;99.90;;;;;;5131984;28;20471;-80
2021/08/27 08:37:20;;;;;;;1.67;1.50;;;14.20;99.90;;;;;;5131515;28;20439;-81
2021/08/27 08:39:48;;;;;;;2.47;1.30;;;13.90;99.90;;;;;;5134282;28;20499;-81
2021/08/27 08:42:15;;;;;;;1.63;1.20;;;14.10;99.90;;;;;;5133460;28;20451;-80
2021/08/27 08:44:42;;;;;;;3.43;1.23;;;14.20;99.90;;;;;;5133296;28;20440;-80
2021/08/27 08:47:11;;;;;;;1.17;1.07;;;14.40;99.90;;;;;;5134007;28;20432;-80
2021/08/27 08:49:40;;;;;;;0.80;0.80;;;14.40;99.90;;;;;;5132548;28;20451;-80
2021/08/27 08:52:08;;;;;;;0.87;0.87;;;14.60;99.90;;;;;;5133312;28;20447;-80
2021/08/27 08:54:34;;;;;;;1.30;0.90;;;14.60;99.90;;;;;;5132566;28;20447;-80
2021/08/27 08:57:03;;;;;;;0.80;0.80;;;14.60;99.90;;;;;;5132019;28;20435;-80
2021/08/27 08:59:33;;;;;;;1.13;0.87;;;14.60;99.90;;;;;;5131865;28;20465;-80
2021/08/27 09:02:01;;;;;;;1.77;0.80;;;14.50;99.90;;;;;;5130990;28;20942;-79
2021/08/27 09:04:29;;;;;;;0.80;0.70;;;14.50;99.90;;;;;;5125685;28;20443;-79
2021/08/27 09:06:56;;;;;;;1.13;1.00;;;14.60;99.90;;;;;;5129732;28;20519;-80
2021/08/27 09:09:33;;;;;;;0.97;0.90;;;14.80;99.90;;;;;;5130828;28;20463;-80
2021/08/27 09:12:00;;;;;;;1.03;0.93;;;14.90;99.90;;;;;;5132195;28;20474;-80
2021/08/27 09:14:32;;;;;;;1.17;0.70;;;15.00;99.90;;;;;;5131522;28;20439;-80
2021/08/27 09:17:06;;;;;;;0.70;0.70;;;15.20;99.90;;;;;;5133314;28;20521;-79
2021/08/27 09:19:53;;;;;;;0.77;0.77;;;15.30;99.90;;;;;;5135174;28;20467;-79
2021/08/27 09:22:21;;;;;;;1.10;0.90;;;15.40;99.90;;;;;;5137985;28;20439;-80
2021/08/27 09:25:04;;;;;;;1.50;0.80;;;15.50;99.90;;;;;;5133086;28;20455;-80
2021/08/27 09:27:32;;;;;;;7.03;1.23;;;15.50;99.90;;;;;;5131080;28;20419;-80
2021/08/27 09:30:00;;;;;;;1.10;1.00;;;15.60;99.90;;;;;;5127658;28;20549;-80
2021/08/27 09:32:29;;;;;;;0.80;0.70;;;15.80;99.90;;;;;;5125119;28;20448;-79
2021/08/27 09:35:05;;;;;;;1.37;1.00;;;15.90;99.90;;;;;;5129745;28;20440;-80
2021/08/27 09:37:43;;;;;;;2.13;1.40;;;15.90;99.90;;;;;;5129397;28;20796;-80
2021/08/27 09:40:12;;;;;;;2.07;1.87;;;15.90;99.90;;;;;;5126092;28;20575;-79
2021/08/27 09:42:40;;;;;;;1.10;1.00;;;15.80;99.90;;;;;;5123309;28;20443;-78
2021/08/27 09:45:10;;;;;;;0.80;0.80;;;15.80;99.90;;;;;;5123100;28;20497;-78
2021/08/27 09:47:37;;;;;;;1.37;0.80;;;15.70;99.90;;;;;;5123735;28;20439;-77
2021/08/27 09:53:22;;;;;;;1.00;0.87;;;;;;;;;;5115575;28;20446;-83
2021/08/27 10:35:52;;;;;;;2.00;1.20;;;15.90;99.90;;;;;;5031273;22;20470;-78
2021/08/27 10:38:38;;;;;;;1.63;1.10;;;15.70;99.90;;;;;;5120620;28;20431;-78
2021/08/27 10:41:10;;;;;;;1.10;1.00;;;15.80;99.90;;;;;;5120252;28;20439;-79
2021/08/27 10:43:57;;;;;;;6.47;1.60;;;16.60;99.90;;;;;;5120094;28;20502;-79
2021/08/27 10:46:45;;;;;;;2.60;2.00;;;15.10;99.90;;;;;;5120153;28;20451;-80
2021/08/27 10:49:12;;;;;;;5.40;2.80;;;15.00;99.90;;;;;;5119777;28;20813;-79
2021/08/27 10:51:42;;;;;;;5.53;3.03;;;14.40;99.90;;;;;;5120331;28;20427;-79
2021/08/27 10:54:11;;;;;;;3.17;2.97;;;14.20;99.90;;;;;;5120220;28;20496;-80
2021/08/27 10:56:49;;;;;;;4.27;3.90;;;14.20;99.90;;;;;;5119675;28;20507;-80
2021/08/27 10:59:16;;;;;;;4.40;3.63;;;14.00;99.90;;;;;;5120571;28;20457;-80
2021/08/27 11:01:44;;;;;;;3.37;3.10;;;14.00;99.90;;;;;;5120756;28;20878;-80
2021/08/27 11:04:16;;;;;;;3.63;3.20;;;13.90;99.90;;;;;;5119782;28;20500;-80
2021/08/27 11:06:52;;;;;;;3.87;3.57;;;13.90;99.90;;;;;;5119467;28;20460;-80
2021/08/27 11:09:23;;;;;;;3.10;2.80;;;13.90;99.90;;;;;;5119409;28;20447;-80
2021/08/27 11:12:09;;;;;;;4.53;4.13;;;14.00;99.90;;;;;;5119125;28;20898;-80
2021/08/27 11:14:36;;;;;;;2.93;2.70;;;14.10;99.90;;;;;;5124493;28;20424;-80
2021/08/27 11:17:05;;;;;;;4.10;3.70;;;14.10;99.90;;;;;;5136811;28;20471;-80
2021/08/27 11:19:34;;;;;;;14.50;11.83;;;14.30;99.90;;;;;;5121904;28;20501;-80
2021/08/27 11:22:25;;;;;;;2.73;2.30;;;14.40;99.90;;;;;;5119769;28;20941;-80
2021/08/27 11:25:23;;;;;;;2.10;2.00;;;14.50;99.90;;;;;;5119579;28;21014;-79
2021/08/27 11:28:11;;;;;;;2.60;2.40;;;14.60;99.90;;;;;;5074126;28;21003;-80
2021/08/27 11:30:39;;;;;;;2.80;2.40;;;;;;;;;;5119307;28;20444;-79
2021/08/27 11:33:06;;;;;;;1.63;1.33;;;;;;;;;;5125634;28;20444;-79
2021/08/27 11:35:45;;;;;;;1.50;1.40;;;;;;;;;;5124828;28;20443;-77
2021/08/27 11:38:13;;;;;;;2.90;2.53;;;;;;;;;;5122426;28;20472;-78
2021/08/27 11:40:40;;;;;;;2.87;2.67;;;;;;;;;;5122581;28;20443;-78
2021/08/27 11:43:07;;;;;;;4.70;4.23;;;;;;;;;;5125637;28;20446;-78
2021/08/27 11:45:34;;;;;;;2.30;2.20;;;;;;;;;;5126332;28;20795;-78
2021/08/27 11:48:06;;;;;;;1.57;1.47;;;;;;;;;;5126027;28;20450;-78
2021/08/27 11:50:35;;;;;;;2.07;1.97;;;;;;;;;;5124071;28;20867;-78
2021/08/27 11:53:02;;;;;;;1.90;1.70;;;;;;;;;;5124175;28;20443;-79
2021/08/27 11:55:31;;;;;;;1.80;1.70;;;;;;;;;;5120483;28;20440;-79
2021/08/27 11:57:59;;;;;;;1.40;1.30;;;;;;;;;;5119205;28;20993;-79
2021/08/27 12:00:36;;;;;;;2.50;2.30;;;;;;;;;;5120843;28;20461;-79
2021/08/27 12:03:03;;;;;;;3.50;3.03;;;;;;;;;;5119986;28;20476;-79
2021/08/27 12:05:30;;;;;;;7.50;5.53;;;;;;;;;;5119859;28;20444;-79
2021/08/27 12:07:58;;;;;;;4.87;2.80;;;;;;;;;;5120030;28;20500;-78
2021/08/27 12:10:25;;;;;;;1.43;1.33;;;;;;;;;;5122017;28;20448;-78
2021/08/27 12:12:54;;;;;;;1.63;1.53;;;;;;;;;;5122362;28;20443;-81
2021/08/27 12:15:22;;;;;;;1.57;1.23;;;;;;;;;;5120961;28;20458;-79
2021/08/27 12:17:57;;;;;;;1.20;1.10;;;;;;;;;;5120359;28;20479;-80
2021/08/27 12:20:25;;;;;;;1.00;1.00;;;;;;;;;;5120940;28;20500;-79
2021/08/27 12:22:59;;;;;;;1.57;1.00;;;;;;;;;;5121000;28;20563;-80
2021/08/27 12:25:28;;;;;;;1.17;1.07;;;;;;;;;;5119160;28;20428;-80
2021/08/27 12:27:58;;;;;;;1.87;1.20;;;;;;;;;;5127997;28;20450;-79
2021/08/27 12:30:25;;;;;;;1.20;1.10;;;;;;;;;;5129729;28;20444;-79
2021/08/27 12:32:53;;;;;;;1.57;1.47;;;;;;;;;;5125952;28;20957;-80
2021/08/27 12:35:23;;;;;;;1.53;1.00;;;;;;;;;;5121244;28;20440;-80
2021/08/27 12:37:52;;;;;;;1.20;1.10;;;;;;;;;;5120003;28;20483;-80
2021/08/27 12:40:20;;;;;;;4.93;1.43;;;;;;;;;;5120050;28;20447;-80
2021/08/27 12:43:05;;;;;;;3.10;1.70;;;;;;;;;;5118452;28;20500;-80
2021/08/27 12:45:44;;;;;;;2.80;2.20;;;;;;;;;;5117959;28;20954;-80
2021/08/27 12:48:11;;;;;;;1.10;1.00;;;;;;;;;;5119105;28;20428;-80
2021/08/27 12:50:44;;;;;;;1.10;1.00;;;;;;;;;;5117057;28;20442;-80
2021/08/27 12:53:11;;;;;;;1.70;1.40;;;;;;;;;;5119073;28;20459;-80
2021/08/27 12:55:38;;;;;;;3.73;1.87;;;;;;;;;;5117831;28;20444;-79
2021/08/27 12:58:07;;;;;;;1.33;1.23;;;;;;;;;;5118240;28;20618;-80
2021/08/27 13:00:34;;;;;;;2.37;1.20;;;;;;;;;;5118627;28;20444;-80
2021/08/27 13:03:10;;;;;;;1.40;1.30;;;;;;;;;;5118699;28;20485;-79
2021/08/27 13:05:38;;;;;;;1.97;1.20;;;;;;;;;;5117414;28;20454;-79
2021/08/27 13:08:10;;;;;;;1.50;1.40;;;;;;;;;;5119573;28;20442;-80
2021/08/27 13:10:37;;;;;;;1.50;1.40;;;;;;;;;;5120439;28;20513;-80
2021/08/27 13:13:04;;;;;;;1.50;1.40;;;;;;;;;;5117551;28;20447;-80
2021/08/27 13:15:31;;;;;;;1.87;1.60;;;;;;;;;;5117376;28;20478;-80
2021/08/27 13:18:02;;;;;;;1.60;1.30;;;;;;;;;;5117003;28;20510;-80
2021/08/27 13:20:32;;;;;;;1.60;1.50;;;;;;;;;;5118658;28;20432;-81
2021/08/27 13:23:13;;;;;;;2.13;1.57;;;;;;;;;;5117924;28;20821;-79
2021/08/27 13:25:49;;;;;;;1.57;1.47;;;;;;;;;;5116952;28;20424;-80
2021/08/27 13:28:16;;;;;;;2.00;1.37;;;;;;;;;;5118381;28;20427;-80
2021/08/27 13:30:43;;;;;;;2.70;1.83;;;;;;;;;;5118594;28;20443;-81
2021/08/27 13:33:10;;;;;;;2.40;1.53;;;;;;;;;;5117483;28;20450;-80
2021/08/27 13:35:40;;;;;;;1.80;1.70;;;;;;;;;;5118555;28;20447;-79
2021/08/27 13:38:07;;;;;;;1.73;1.63;;;;;;;;;;5124647;28;20464;-79
2021/08/27 13:40:34;;;;;;;5.10;3.30;;;;;;;;;;5130909;28;20444;-79
2021/08/27 13:43:01;;;;;;;3.50;2.90;;;;;;;;;;5126190;28;20451;-80
2021/08/27 13:45:28;;;;;;;4.47;3.90;;;;;;;;;;5119652;28;20447;-80
2021/08/27 13:47:55;;;;;;;3.00;2.60;;;;;;;;;;5122248;28;20450;-80
2021/08/27 13:50:22;;;;;;;1.60;1.50;;;;;;;;;;5120844;28;20461;-78
2021/08/27 13:52:50;;;;;;;1.50;1.23;;;;;;;;;;5120033;28;20950;-80
2021/08/27 13:55:18;;;;;;;1.50;1.40;;;;;;;;;;5125973;28;20474;-79
2021/08/27 13:57:45;;;;;;;1.10;0.90;;;;;;;;;;5130352;28;20506;-79
2021/08/27 14:00:14;;;;;;;1.00;1.00;;;;;;;;;;5117042;28;20439;-79
2021/08/27 14:02:41;;;;;;;1.03;0.80;;;;;;;;;;5116427;28;20443;-79
2021/08/27 14:05:09;;;;;;;0.80;0.80;;;;;;;;;;5116105;28;20478;-79
2021/08/27 14:07:36;;;;;;;4.93;0.80;;;;;;;;;;5116117;28;20968;-79
2021/08/27 14:10:07;;;;;;;1.20;1.10;;;;;;;;;;5121103;28;21011;-79
2021/08/27 14:12:36;;;;;;;0.80;0.80;;;;;;;;;;5122105;28;20429;-80
2021/08/27 14:15:02;;;;;;;1.00;1.00;;;;;;;;;;5117942;28;20462;-79
2021/08/27 14:17:29;;;;;;;4.70;1.40;;;;;;;;;;5115554;28;20539;-79
2021/08/27 14:19:56;;;;;;;1.10;1.00;;;;;;;;;;5116094;28;20440;-80
2021/08/27 14:22:23;;;;;;;0.90;0.90;;;;;;;;;;5123489;28;20479;-81
2021/08/27 14:24:50;;;;;;;1.83;1.73;;;;;;;;;;5128101;28;20504;-80
2021/08/27 14:27:19;;;;;;;1.63;1.53;;;;;;;;;;5123531;28;20459;-80